Zeus — V2OR — position and weather

sailwx.info

Track history (hours):
 
Tides and Currents Weather Stations Pressure Air Temp Water Temp Dewpoint Dewpoint Depression Visibility Wind Speed Wind Dir Waves Ship Positions

Zeus

Last reported at 2016-Dec-05 17:33 UTC. Time now 2016-Dec-06 19:56 UTC.
Position N 52°31' E 004°15'.

Length 89 m; draft 4.6 m.

Type: Cargo ship. MMSI: 304011025.

Date/timePositionNaut miles runAvg speedWind from/ knotsBaromVisibWave heightAir tempDewpointWater temp
2016-Dec-05 17:33N 52°31' E 004°15'1010.0
2016-Dec-05 16:33N 52°28' E 004°31'4 3.7
2016-Dec-05 15:34N 52°28' E 004°37'9 9.3
2016-Dec-05 14:34N 52°25' E 004°51'1 0.8
2016-Dec-05 13:32N 52°24' E 004°52'0 0.0
2016-Dec-05 12:31N 52°24' E 004°52'0 0.0
2016-Dec-05 11:27N 52°24' E 004°52'0 0.0
2016-Dec-05 10:31N 52°24' E 004°52'0 0.0
2016-Dec-05 09:32N 52°24' E 004°52'0 0.0
2016-Dec-05 08:31N 52°24' E 004°52'0 0.4
2016-Dec-05 07:34N 52°24' E 004°52'0 0.2
2016-Dec-05 06:30N 52°24' E 004°52'0 0.0
2016-Dec-05 05:33N 52°24' E 004°52'0 0.0
2016-Dec-05 04:28N 52°24' E 004°52'0 0.0
2016-Dec-05 03:25N 52°24' E 004°52'0 0.0
2016-Dec-05 02:29N 52°24' E 004°52'0 0.0
2016-Dec-05 01:18N 52°24' E 004°52'0 0.0
2016-Dec-05 00:31N 52°24' E 004°52'0 0.0
2016-Dec-04 23:27N 52°24' E 004°52'0 0.0
2016-Dec-04 22:29N 52°24' E 004°52'0 0.0
2016-Dec-04 21:34N 52°24' E 004°52'0 0.0
2016-Dec-04 20:33N 52°24' E 004°52'0 0.0
2016-Dec-04 19:32N 52°24' E 004°52'0 0.0
2016-Dec-04 18:33N 52°24' E 004°52'0 0.0
2016-Dec-04 17:32N 52°24' E 004°52'0 0.0
2016-Dec-04 16:30N 52°24' E 004°52'0 0.0
2016-Dec-04 15:32N 52°24' E 004°52'0 0.0
2016-Dec-04 14:30N 52°24' E 004°52'0 0.0
2016-Dec-04 13:32N 52°24' E 004°52'0 0.0
2016-Dec-04 12:32N 52°24' E 004°52'0 0.0
2016-Dec-04 11:30N 52°24' E 004°52'0 0.0
2016-Dec-04 10:32N 52°24' E 004°52'0 0.0
2016-Dec-04 09:32N 52°24' E 004°52'0 0.0
2016-Dec-04 08:34N 52°24' E 004°52'0 0.0
2016-Dec-04 07:33N 52°24' E 004°52'0 0.0
2016-Dec-04 06:16N 52°24' E 004°52'0 0.0
2016-Dec-04 05:30N 52°24' E 004°52'0 0.0
2016-Dec-04 04:32N 52°24' E 004°52'0 0.0
2016-Dec-04 03:29N 52°24' E 004°52'0 0.0
2016-Dec-04 02:33N 52°24' E 004°52'0 0.0
2016-Dec-04 01:29N 52°24' E 004°52'0 0.0
2016-Dec-04 00:31N 52°24' E 004°52'0 0.0
2016-Dec-03 23:26N 52°24' E 004°52'0 0.0
2016-Dec-03 22:31N 52°24' E 004°52'0 0.0
2016-Dec-03 21:25N 52°24' E 004°52'0 0.0
2016-Dec-03 20:29N 52°24' E 004°52'0 0.0
2016-Dec-03 19:31N 52°24' E 004°52'0 0.0
2016-Dec-03 18:24N 52°24' E 004°52'0 0.0
2016-Dec-03 17:32N 52°24' E 004°52'0 0.0
2016-Dec-03 16:33N 52°24' E 004°52'0 0.0
2016-Dec-03 15:28N 52°24' E 004°52'0 0.0
2016-Dec-03 14:33N 52°24' E 004°52'0 0.0
2016-Dec-03 13:26N 52°24' E 004°52'0 0.0
2016-Dec-03 12:31N 52°24' E 004°52'0 0.0
2016-Dec-03 11:29N 52°24' E 004°52'0 0.0
2016-Dec-03 10:30N 52°24' E 004°52'0 0.0
2016-Dec-03 09:26N 52°24' E 004°52'0 0.0
2016-Dec-03 08:30N 52°24' E 004°52'0 0.0
2016-Dec-03 07:23N 52°24' E 004°52'0 0.0
2016-Dec-03 06:26N 52°24' E 004°52'0 0.0
2016-Dec-03 05:27N 52°24' E 004°52'0 0.0
2016-Dec-03 04:22N 52°24' E 004°52'0 0.0
2016-Dec-03 03:33N 52°24' E 004°52'0 0.0
2016-Dec-03 02:33N 52°24' E 004°52'4 3.8
2016-Dec-03 01:33N 52°22' E 004°57'6 5.8
2016-Dec-03 00:33N 52°17' E 005°01'10 7.0
2016-Dec-02 23:08N 52°07' E 005°04'4 6.8
2016-Dec-02 22:34N 52°03' E 005°06'23 5.1
2016-Dec-02 18:09N 51°54' E 005°40'5 9.1
2016-Dec-02 17:33N 51°52' E 005°48'8 7.6
2016-Dec-02 16:33N 51°53' E 006°00'1010.1
2016-Dec-02 15:33N 51°49' E 006°16'17 8.4
2016-Dec-02 13:33N 51°38' E 006°36'7 0.2
2016-Dec-01 04:12N 51°32' E 006°41'3 4.7
2016-Dec-01 03:33N 51°35' E 006°40'4 4.0
2016-Dec-01 02:33N 51°37' E 006°35'3 3.3
2016-Dec-01 01:33N 51°40' E 006°32'10 4.7
2016-Nov-30 23:23N 51°47' E 006°19'5 5.9
2016-Nov-30 22:33N 51°50' E 006°14'6 5.8
2016-Nov-30 21:33N 51°52' E 006°05'5 5.0
2016-Nov-30 20:34N 51°52' E 005°57'5 5.3
2016-Nov-30 19:33N 51°53' E 005°48'31 6.3
2016-Nov-30 14:33N 51°49' E 004°57'8 8.1
2016-Nov-30 13:33N 51°49' E 004°44'7 7.4
2016-Nov-30 12:33N 51°54' E 004°35'6 6.4
2016-Nov-30 11:34N 51°55' E 004°25'0 0.0
2016-Nov-30 10:20N 51°55' E 004°25'0 0.0
2016-Nov-30 09:28N 51°55' E 004°25'0 0.0
2016-Nov-30 08:32N 51°55' E 004°25'0 0.2
2016-Nov-30 07:31N 51°54' E 004°25'0 0.0
2016-Nov-30 06:28N 51°54' E 004°25'0 0.0
2016-Nov-30 05:23N 51°54' E 004°25'0 0.0
2016-Nov-30 04:26N 51°54' E 004°25'0 0.0
2016-Nov-30 03:31N 51°54' E 004°25'0 0.0
2016-Nov-30 02:27N 51°54' E 004°25'0 0.0
2016-Nov-30 01:32N 51°54' E 004°25'0 0.0
2016-Nov-30 00:29N 51°54' E 004°25'0 0.0
2016-Nov-29 23:33N 51°54' E 004°25'0 0.0
2016-Nov-29 22:33N 51°54' E 004°25'0 0.0
2016-Nov-29 21:33N 51°54' E 004°25'0 0.0
2016-Nov-29 20:34N 51°54' E 004°25'0 0.0
2016-Nov-29 19:33N 51°54' E 004°25'0 0.0
2016-Nov-29 18:26N 51°54' E 004°25'0 0.0
2016-Nov-29 17:31N 51°54' E 004°25'0 0.0
2016-Nov-29 16:29N 51°54' E 004°25'0 0.0
2016-Nov-29 15:32N 51°54' E 004°25'0 0.0
2016-Nov-29 14:27N 51°54' E 004°25'0 0.0
2016-Nov-29 13:33N 51°54' E 004°25'5 5.1
2016-Nov-29 12:33N 51°54' E 004°17'9 8.9
2016-Nov-29 11:33N 51°59' E 004°05'9 9.4
2016-Nov-29 10:33N 52°02' E 003°50'453455.2
2016-Nov-29 09:33N 59°34' E 004°43'7 6.7
2016-Nov-29 08:33N 59°41' E 004°42'7 6.6
2016-Nov-29 07:33N 59°47' E 004°42'6 6.4
2016-Nov-29 06:33N 59°54' E 004°41'6 6.0
2016-Nov-29 05:33N 59°60' E 004°40'6 6.4
2016-Nov-29 04:33N 60°06' E 004°37'6 5.5
2016-Nov-29 03:33N 60°11' E 004°34'6 6.2
2016-Nov-29 02:33N 60°17' E 004°29'37988.3
2016-Nov-28 22:16N 53°58' E 004°53'410567.6
2016-Nov-28 21:32N 60°48' E 004°18'6 6.0
2016-Nov-28 20:33N 60°54' E 004°17'5 4.9
2016-Nov-28 19:33N 60°59' E 004°17'6 6.4
2016-Nov-28 18:33N 61°05' E 004°16'69 5.6
2016-Nov-28 06:10N 62°14' E 004°33'2 3.3
2016-Nov-28 05:33N 62°13' E 004°37'4 3.7
2016-Nov-28 04:33N 62°13' E 004°45'3 3.5
2016-Nov-28 03:33N 62°13' E 004°53'3 2.9
2016-Nov-28 02:33N 62°14' E 004°59'3 3.3
2016-Nov-28 01:33N 62°14' E 005°06'2 2.1
2016-Nov-28 00:33N 62°14' E 005°10'2 2.5
2016-Nov-27 23:33N 62°13' E 005°16'5 5.1
2016-Nov-27 22:33N 62°09' E 005°21'8 3.9
2016-Nov-27 20:33N 62°03' E 005°31'0 0.0
2016-Nov-27 19:33N 62°03' E 005°31'0 0.0
2016-Nov-27 18:31N 62°03' E 005°31'0 0.0
2016-Nov-27 17:27N 62°03' E 005°31'0 0.0
2016-Nov-27 16:29N 62°03' E 005°31'0 0.0
2016-Nov-27 15:33N 62°03' E 005°31'0 0.0
2016-Nov-27 14:15N 62°03' E 005°31'0 0.0
2016-Nov-27 13:30N 62°03' E 005°31'0 0.0
2016-Nov-27 12:29N 62°03' E 005°31'0 0.0
2016-Nov-27 11:32N 62°03' E 005°31'0 0.0
2016-Nov-27 10:33N 62°03' E 005°31'0 0.0
2016-Nov-27 09:29N 62°03' E 005°31'0 0.0
2016-Nov-27 08:31N 62°03' E 005°31'0 0.0
2016-Nov-27 07:32N 62°03' E 005°31'0 0.0
2016-Nov-27 06:25N 62°03' E 005°31'0 0.0
2016-Nov-27 05:33N 62°03' E 005°31'0 0.0
2016-Nov-27 04:31N 62°03' E 005°31'0 0.0
2016-Nov-27 03:26N 62°03' E 005°31'0 0.0
2016-Nov-27 02:33N 62°03' E 005°31'0 0.0
2016-Nov-27 01:31N 62°03' E 005°31'0 0.0
2016-Nov-27 00:33N 62°03' E 005°31'0 0.0
2016-Nov-26 23:33N 62°03' E 005°31'0 0.0
2016-Nov-26 22:33N 62°03' E 005°31'0 0.0
2016-Nov-26 21:32N 62°03' E 005°31'0 0.0
2016-Nov-26 20:30N 62°03' E 005°31'0 0.0
2016-Nov-26 19:33N 62°03' E 005°31'0 0.0
2016-Nov-26 18:27N 62°03' E 005°31'0 0.0
2016-Nov-26 17:33N 62°03' E 005°31'0 0.0
2016-Nov-26 16:30N 62°03' E 005°31'0 0.0
2016-Nov-26 15:31N 62°03' E 005°31'0 0.0
2016-Nov-26 14:33N 62°03' E 005°31'0 0.0
2016-Nov-26 13:29N 62°03' E 005°31'1511.6
2016-Nov-26 12:12N 62°14' E 005°10'2 3.7
2016-Nov-26 11:33N 62°13' E 005°15'1312.9
2016-Nov-26 10:33N 62°03' E 005°31'0 0.0
2016-Nov-26 09:31N 62°03' E 005°31'0 0.0
2016-Nov-26 08:31N 62°03' E 005°31'0 0.0
2016-Nov-26 07:33N 62°03' E 005°31'0 0.0
2016-Nov-26 06:30N 62°03' E 005°31'0 0.0
2016-Nov-26 05:31N 62°03' E 005°31'0 0.0
2016-Nov-26 04:32N 62°03' E 005°31'0 0.0
2016-Nov-26 03:29N 62°03' E 005°31'0 0.0
2016-Nov-26 02:28N 62°03' E 005°31'0 0.0
2016-Nov-26 01:33N 62°03' E 005°31'0 0.0
2016-Nov-26 00:29N 62°03' E 005°31'0 0.0
2016-Nov-25 23:31N 62°03' E 005°31'0 0.0
2016-Nov-25 22:33N 62°03' E 005°31'0 0.0
2016-Nov-25 21:30N 62°03' E 005°31'0 0.0
2016-Nov-25 20:32N 62°03' E 005°31'0 0.0
2016-Nov-25 19:32N 62°03' E 005°31'0 0.0
2016-Nov-25 18:30N 62°03' E 005°31'  
Track history (hours):
 
Tides and Currents Weather Stations Pressure Air Temp Water Temp Dewpoint Dewpoint Depression Visibility Wind Speed Wind Dir Waves Ship Positions

Zeus

Last reported at 2016-Dec-05 17:33 UTC. Time now 2016-Dec-06 19:56 UTC.
Position N 52°31' E 004°15'.

Length 89 m; draft 4.6 m.

Type: Cargo ship. MMSI: 304011025.

Date/timePositionNaut miles runAvg speedWind from/ knotsBaromVisibWave heightAir tempDewpointWater temp
2016-Dec-05 17:33N 52°31' E 004°15'1010.0
2016-Dec-05 16:33N 52°28' E 004°31'4 3.7
2016-Dec-05 15:34N 52°28' E 004°37'9 9.3
2016-Dec-05 14:34N 52°25' E 004°51'1 0.8
2016-Dec-05 13:32N 52°24' E 004°52'0 0.0
2016-Dec-05 12:31N 52°24' E 004°52'0 0.0
2016-Dec-05 11:27N 52°24' E 004°52'0 0.0
2016-Dec-05 10:31N 52°24' E 004°52'0 0.0
2016-Dec-05 09:32N 52°24' E 004°52'0 0.0
2016-Dec-05 08:31N 52°24' E 004°52'0 0.4
2016-Dec-05 07:34N 52°24' E 004°52'0 0.2
2016-Dec-05 06:30N 52°24' E 004°52'0 0.0
2016-Dec-05 05:33N 52°24' E 004°52'0 0.0
2016-Dec-05 04:28N 52°24' E 004°52'0 0.0
2016-Dec-05 03:25N 52°24' E 004°52'0 0.0
2016-Dec-05 02:29N 52°24' E 004°52'0 0.0
2016-Dec-05 01:18N 52°24' E 004°52'0 0.0
2016-Dec-05 00:31N 52°24' E 004°52'0 0.0
2016-Dec-04 23:27N 52°24' E 004°52'0 0.0
2016-Dec-04 22:29N 52°24' E 004°52'0 0.0
2016-Dec-04 21:34N 52°24' E 004°52'0 0.0
2016-Dec-04 20:33N 52°24' E 004°52'0 0.0
2016-Dec-04 19:32N 52°24' E 004°52'0 0.0
2016-Dec-04 18:33N 52°24' E 004°52'0 0.0
2016-Dec-04 17:32N 52°24' E 004°52'0 0.0
2016-Dec-04 16:30N 52°24' E 004°52'0 0.0
2016-Dec-04 15:32N 52°24' E 004°52'0 0.0
2016-Dec-04 14:30N 52°24' E 004°52'0 0.0
2016-Dec-04 13:32N 52°24' E 004°52'0 0.0
2016-Dec-04 12:32N 52°24' E 004°52'0 0.0
2016-Dec-04 11:30N 52°24' E 004°52'0 0.0
2016-Dec-04 10:32N 52°24' E 004°52'0 0.0
2016-Dec-04 09:32N 52°24' E 004°52'0 0.0
2016-Dec-04 08:34N 52°24' E 004°52'0 0.0
2016-Dec-04 07:33N 52°24' E 004°52'0 0.0
2016-Dec-04 06:16N 52°24' E 004°52'0 0.0
2016-Dec-04 05:30N 52°24' E 004°52'0 0.0
2016-Dec-04 04:32N 52°24' E 004°52'0 0.0
2016-Dec-04 03:29N 52°24' E 004°52'0 0.0
2016-Dec-04 02:33N 52°24' E 004°52'0 0.0
2016-Dec-04 01:29N 52°24' E 004°52'0 0.0
2016-Dec-04 00:31N 52°24' E 004°52'0 0.0
2016-Dec-03 23:26N 52°24' E 004°52'0 0.0
2016-Dec-03 22:31N 52°24' E 004°52'0 0.0
2016-Dec-03 21:25N 52°24' E 004°52'0 0.0
2016-Dec-03 20:29N 52°24' E 004°52'0 0.0
2016-Dec-03 19:31N 52°24' E 004°52'0 0.0
2016-Dec-03 18:24N 52°24' E 004°52'0 0.0
2016-Dec-03 17:32N 52°24' E 004°52'0 0.0
2016-Dec-03 16:33N 52°24' E 004°52'0 0.0
2016-Dec-03 15:28N 52°24' E 004°52'0 0.0
2016-Dec-03 14:33N 52°24' E 004°52'0 0.0
2016-Dec-03 13:26N 52°24' E 004°52'0 0.0
2016-Dec-03 12:31N 52°24' E 004°52'0 0.0
2016-Dec-03 11:29N 52°24' E 004°52'0 0.0
2016-Dec-03 10:30N 52°24' E 004°52'0 0.0
2016-Dec-03 09:26N 52°24' E 004°52'0 0.0
2016-Dec-03 08:30N 52°24' E 004°52'0 0.0
2016-Dec-03 07:23N 52°24' E 004°52'0 0.0
2016-Dec-03 06:26N 52°24' E 004°52'0 0.0
2016-Dec-03 05:27N 52°24' E 004°52'0 0.0
2016-Dec-03 04:22N 52°24' E 004°52'0 0.0
2016-Dec-03 03:33N 52°24' E 004°52'0 0.0
2016-Dec-03 02:33N 52°24' E 004°52'4 3.8
2016-Dec-03 01:33N 52°22' E 004°57'6 5.8
2016-Dec-03 00:33N 52°17' E 005°01'10 7.0
2016-Dec-02 23:08N 52°07' E 005°04'4 6.8
2016-Dec-02 22:34N 52°03' E 005°06'23 5.1
2016-Dec-02 18:09N 51°54' E 005°40'5 9.1
2016-Dec-02 17:33N 51°52' E 005°48'8 7.6
2016-Dec-02 16:33N 51°53' E 006°00'1010.1
2016-Dec-02 15:33N 51°49' E 006°16'17 8.4
2016-Dec-02 13:33N 51°38' E 006°36'7 0.2
2016-Dec-01 04:12N 51°32' E 006°41'3 4.7
2016-Dec-01 03:33N 51°35' E 006°40'4 4.0
2016-Dec-01 02:33N 51°37' E 006°35'3 3.3
2016-Dec-01 01:33N 51°40' E 006°32'10 4.7
2016-Nov-30 23:23N 51°47' E 006°19'5 5.9
2016-Nov-30 22:33N 51°50' E 006°14'6 5.8
2016-Nov-30 21:33N 51°52' E 006°05'5 5.0
2016-Nov-30 20:34N 51°52' E 005°57'5 5.3
2016-Nov-30 19:33N 51°53' E 005°48'31 6.3
2016-Nov-30 14:33N 51°49' E 004°57'8 8.1
2016-Nov-30 13:33N 51°49' E 004°44'7 7.4
2016-Nov-30 12:33N 51°54' E 004°35'6 6.4
2016-Nov-30 11:34N 51°55' E 004°25'0 0.0
2016-Nov-30 10:20N 51°55' E 004°25'0 0.0
2016-Nov-30 09:28N 51°55' E 004°25'0 0.0
2016-Nov-30 08:32N 51°55' E 004°25'0 0.2
2016-Nov-30 07:31N 51°54' E 004°25'0 0.0
2016-Nov-30 06:28N 51°54' E 004°25'0 0.0
2016-Nov-30 05:23N 51°54' E 004°25'0 0.0
2016-Nov-30 04:26N 51°54' E 004°25'0 0.0
2016-Nov-30 03:31N 51°54' E 004°25'0 0.0
2016-Nov-30 02:27N 51°54' E 004°25'0 0.0
2016-Nov-30 01:32N 51°54' E 004°25'0 0.0
2016-Nov-30 00:29N 51°54' E 004°25'0 0.0
2016-Nov-29 23:33N 51°54' E 004°25'0 0.0
2016-Nov-29 22:33N 51°54' E 004°25'0 0.0
2016-Nov-29 21:33N 51°54' E 004°25'0 0.0
2016-Nov-29 20:34N 51°54' E 004°25'0 0.0
2016-Nov-29 19:33N 51°54' E 004°25'0 0.0
2016-Nov-29 18:26N 51°54' E 004°25'0 0.0
2016-Nov-29 17:31N 51°54' E 004°25'0 0.0
2016-Nov-29 16:29N 51°54' E 004°25'0 0.0
2016-Nov-29 15:32N 51°54' E 004°25'0 0.0
2016-Nov-29 14:27N 51°54' E 004°25'0 0.0
2016-Nov-29 13:33N 51°54' E 004°25'5 5.1
2016-Nov-29 12:33N 51°54' E 004°17'9 8.9
2016-Nov-29 11:33N 51°59' E 004°05'9 9.4
2016-Nov-29 10:33N 52°02' E 003°50'453455.2
2016-Nov-29 09:33N 59°34' E 004°43'7 6.7
2016-Nov-29 08:33N 59°41' E 004°42'7 6.6
2016-Nov-29 07:33N 59°47' E 004°42'6 6.4
2016-Nov-29 06:33N 59°54' E 004°41'6 6.0
2016-Nov-29 05:33N 59°60' E 004°40'6 6.4
2016-Nov-29 04:33N 60°06' E 004°37'6 5.5
2016-Nov-29 03:33N 60°11' E 004°34'6 6.2
2016-Nov-29 02:33N 60°17' E 004°29'37988.3
2016-Nov-28 22:16N 53°58' E 004°53'410567.6
2016-Nov-28 21:32N 60°48' E 004°18'6 6.0
2016-Nov-28 20:33N 60°54' E 004°17'5 4.9
2016-Nov-28 19:33N 60°59' E 004°17'6 6.4
2016-Nov-28 18:33N 61°05' E 004°16'69 5.6
2016-Nov-28 06:10N 62°14' E 004°33'2 3.3
2016-Nov-28 05:33N 62°13' E 004°37'4 3.7
2016-Nov-28 04:33N 62°13' E 004°45'3 3.5
2016-Nov-28 03:33N 62°13' E 004°53'3 2.9
2016-Nov-28 02:33N 62°14' E 004°59'3 3.3
2016-Nov-28 01:33N 62°14' E 005°06'2 2.1
2016-Nov-28 00:33N 62°14' E 005°10'2 2.5
2016-Nov-27 23:33N 62°13' E 005°16'5 5.1
2016-Nov-27 22:33N 62°09' E 005°21'8 3.9
2016-Nov-27 20:33N 62°03' E 005°31'0 0.0
2016-Nov-27 19:33N 62°03' E 005°31'0 0.0
2016-Nov-27 18:31N 62°03' E 005°31'0 0.0
2016-Nov-27 17:27N 62°03' E 005°31'0 0.0
2016-Nov-27 16:29N 62°03' E 005°31'0 0.0
2016-Nov-27 15:33N 62°03' E 005°31'0 0.0
2016-Nov-27 14:15N 62°03' E 005°31'0 0.0
2016-Nov-27 13:30N 62°03' E 005°31'0 0.0
2016-Nov-27 12:29N 62°03' E 005°31'0 0.0
2016-Nov-27 11:32N 62°03' E 005°31'0 0.0
2016-Nov-27 10:33N 62°03' E 005°31'0 0.0
2016-Nov-27 09:29N 62°03' E 005°31'0 0.0
2016-Nov-27 08:31N 62°03' E 005°31'0 0.0
2016-Nov-27 07:32N 62°03' E 005°31'0 0.0
2016-Nov-27 06:25N 62°03' E 005°31'0 0.0
2016-Nov-27 05:33N 62°03' E 005°31'0 0.0
2016-Nov-27 04:31N 62°03' E 005°31'0 0.0
2016-Nov-27 03:26N 62°03' E 005°31'0 0.0
2016-Nov-27 02:33N 62°03' E 005°31'0 0.0
2016-Nov-27 01:31N 62°03' E 005°31'0 0.0
2016-Nov-27 00:33N 62°03' E 005°31'0 0.0
2016-Nov-26 23:33N 62°03' E 005°31'0 0.0
2016-Nov-26 22:33N 62°03' E 005°31'0 0.0
2016-Nov-26 21:32N 62°03' E 005°31'0 0.0
2016-Nov-26 20:30N 62°03' E 005°31'0 0.0
2016-Nov-26 19:33N 62°03' E 005°31'0 0.0
2016-Nov-26 18:27N 62°03' E 005°31'0 0.0
2016-Nov-26 17:33N 62°03' E 005°31'0 0.0
2016-Nov-26 16:30N 62°03' E 005°31'0 0.0
2016-Nov-26 15:31N 62°03' E 005°31'0 0.0
2016-Nov-26 14:33N 62°03' E 005°31'0 0.0
2016-Nov-26 13:29N 62°03' E 005°31'1511.6
2016-Nov-26 12:12N 62°14' E 005°10'2 3.7
2016-Nov-26 11:33N 62°13' E 005°15'1312.9
2016-Nov-26 10:33N 62°03' E 005°31'0 0.0
2016-Nov-26 09:31N 62°03' E 005°31'0 0.0
2016-Nov-26 08:31N 62°03' E 005°31'0 0.0
2016-Nov-26 07:33N 62°03' E 005°31'0 0.0
2016-Nov-26 06:30N 62°03' E 005°31'0 0.0
2016-Nov-26 05:31N 62°03' E 005°31'0 0.0
2016-Nov-26 04:32N 62°03' E 005°31'0 0.0
2016-Nov-26 03:29N 62°03' E 005°31'0 0.0
2016-Nov-26 02:28N 62°03' E 005°31'0 0.0
2016-Nov-26 01:33N 62°03' E 005°31'0 0.0
2016-Nov-26 00:29N 62°03' E 005°31'0 0.0
2016-Nov-25 23:31N 62°03' E 005°31'0 0.0
2016-Nov-25 22:33N 62°03' E 005°31'0 0.0
2016-Nov-25 21:30N 62°03' E 005°31'0 0.0
2016-Nov-25 20:32N 62°03' E 005°31'0 0.0
2016-Nov-25 19:32N 62°03' E 005°31'0 0.0
2016-Nov-25 18:30N 62°03' E 005°31'  

Dump ship's entire track history